createdAt,value
2022-07-26T00:01:39.990Z,8.20
2022-07-26T00:03:43.971Z,8.70
2022-07-26T00:05:47.545Z,7.30
2022-07-26T00:08:10.481Z,7.07
2022-07-26T00:10:14.214Z,7.57
2022-07-26T00:12:17.773Z,7.77
2022-07-26T00:14:21.677Z,6.77
2022-07-26T00:16:26.675Z,6.60
2022-07-26T00:18:30.313Z,6.27
2022-07-26T00:20:34.126Z,6.23
2022-07-26T00:22:39.816Z,5.50
2022-07-26T00:24:43.336Z,5.83
2022-07-26T00:26:46.509Z,5.80
2022-07-26T00:28:49.786Z,4.80
2022-07-26T00:30:53.324Z,5.40
2022-07-26T00:32:58.280Z,4.63
2022-07-26T00:35:02.113Z,4.90
2022-07-26T00:37:05.602Z,4.90
2022-07-26T00:39:09.820Z,4.50
2022-07-26T00:41:13.801Z,4.80
2022-07-26T00:43:17.398Z,5.43
2022-07-26T00:45:20.886Z,5.43
2022-07-26T00:47:24.573Z,5.50
2022-07-26T00:49:29.649Z,5.80
2022-07-26T00:51:33.452Z,4.90
2022-07-26T00:53:36.987Z,6.03
2022-07-26T00:55:40.580Z,6.97
2022-07-26T00:57:44.563Z,6.70
2022-07-26T00:59:48.065Z,7.40
2022-07-26T01:01:51.734Z,6.50
2022-07-26T01:03:55.994Z,7.40
2022-07-26T01:06:01.027Z,6.93
2022-07-26T01:08:04.990Z,6.93
2022-07-26T01:10:12.658Z,6.60
2022-07-26T01:12:16.431Z,7.53
2022-07-26T01:14:22.585Z,7.13
2022-07-26T01:16:26.625Z,7.23
2022-07-26T01:18:30.281Z,7.73
2022-07-26T01:20:34.243Z,7.63
2022-07-26T01:22:39.176Z,7.47
2022-07-26T01:24:42.924Z,8.30
2022-07-26T01:26:46.740Z,7.03
2022-07-26T01:28:50.526Z,9.60
2022-07-26T01:30:54.680Z,8.10
2022-07-26T01:32:58.316Z,7.37
2022-07-26T01:35:02.094Z,8.70
2022-07-26T01:37:06.369Z,7.17
2022-07-26T01:39:11.356Z,7.80
2022-07-26T01:41:14.924Z,8.00
2022-07-26T01:43:18.441Z,7.53
2022-07-26T01:45:22.281Z,8.50
2022-07-26T01:47:25.948Z,8.00
2022-07-26T01:49:29.472Z,7.20
2022-07-26T01:51:33.020Z,6.20
2022-07-26T01:53:36.798Z,6.20
2022-07-26T01:55:41.703Z,5.30
2022-07-26T01:57:46.804Z,5.30
2022-07-26T01:59:50.312Z,5.20
2022-07-26T02:01:54.180Z,4.83
2022-07-26T02:03:57.807Z,4.97
2022-07-26T02:06:01.358Z,5.20
2022-07-26T02:08:04.991Z,5.20
2022-07-26T02:10:08.963Z,5.10
2022-07-26T02:12:17.438Z,4.37
2022-07-26T02:14:25.512Z,5.40
2022-07-26T02:16:29.665Z,4.33
2022-07-26T02:18:33.305Z,3.37
2022-07-26T02:20:37.212Z,3.70
2022-07-26T02:22:40.762Z,3.60
2022-07-26T02:24:44.306Z,3.53
2022-07-26T02:26:47.541Z,3.00
2022-07-26T02:28:52.146Z,3.30
2022-07-26T02:30:55.967Z,3.40
2022-07-26T02:33:00.191Z,3.90
2022-07-26T02:35:03.459Z,3.50
2022-07-26T02:37:07.260Z,2.80
2022-07-26T02:39:10.924Z,2.40
2022-07-26T02:41:14.269Z,3.27
2022-07-26T02:43:17.588Z,2.40
2022-07-26T02:45:22.588Z,3.30
2022-07-26T02:47:25.940Z,2.90
2022-07-26T02:49:29.113Z,2.67
2022-07-26T02:51:32.647Z,3.27
2022-07-26T02:53:36.465Z,3.00
2022-07-26T02:55:39.763Z,3.00
2022-07-26T02:57:45.462Z,3.27
2022-07-26T02:59:50.438Z,2.60
2022-07-26T03:01:55.609Z,3.00
2022-07-26T03:03:59.004Z,2.90
2022-07-26T03:06:02.599Z,3.10
2022-07-26T03:08:06.617Z,3.40
2022-07-26T03:10:10.846Z,2.93
2022-07-26T03:12:14.324Z,3.37
2022-07-26T03:14:17.982Z,3.30
2022-07-26T03:16:24.884Z,3.03
2022-07-26T03:18:33.872Z,3.13
2022-07-26T03:20:37.993Z,2.90
2022-07-26T03:22:41.586Z,3.00
2022-07-26T03:24:45.474Z,2.53
2022-07-26T03:26:49.007Z,3.03
2022-07-26T03:28:52.957Z,3.10
2022-07-26T03:30:56.732Z,3.00
2022-07-26T03:33:00.290Z,2.80
2022-07-26T03:35:05.573Z,3.00
2022-07-26T03:37:09.545Z,3.10
2022-07-26T03:39:13.085Z,2.70
2022-07-26T03:41:16.828Z,2.63
2022-07-26T03:43:23.206Z,2.90
2022-07-26T03:45:27.037Z,2.67
2022-07-26T03:47:30.560Z,2.83
2022-07-26T03:49:34.098Z,3.07
2022-07-26T03:51:39.425Z,2.43
2022-07-26T03:53:42.947Z,2.83
2022-07-26T03:56:04.529Z,2.97
2022-07-26T03:58:08.116Z,3.10
2022-07-26T04:00:12.509Z,3.10
2022-07-26T04:02:16.113Z,3.17
2022-07-26T04:04:25.067Z,2.97
2022-07-26T04:06:28.992Z,2.40
2022-07-26T04:08:33.844Z,3.33
2022-07-26T04:10:37.410Z,3.30
2022-07-26T04:12:40.954Z,3.10
2022-07-26T04:14:44.694Z,3.10
2022-07-26T04:16:48.318Z,2.63
2022-07-26T04:18:51.894Z,3.00
2022-07-26T04:20:55.492Z,2.80
2022-07-26T04:22:59.125Z,2.67
2022-07-26T04:25:04.504Z,3.00
2022-07-26T04:27:08.072Z,2.63
2022-07-26T04:29:12.721Z,2.87
2022-07-26T04:31:16.488Z,3.00
2022-07-26T04:33:20.204Z,2.50
2022-07-26T04:35:23.752Z,2.73
2022-07-26T04:37:27.260Z,2.60
2022-07-26T04:39:30.793Z,2.77
2022-07-26T04:41:35.815Z,2.70
2022-07-26T04:43:39.530Z,2.93
2022-07-26T04:45:43.211Z,2.47
2022-07-26T04:47:47.446Z,2.33
2022-07-26T04:49:52.773Z,3.03
2022-07-26T04:51:59.362Z,2.10
2022-07-26T04:54:03.136Z,2.33
2022-07-26T04:56:07.381Z,2.70
2022-07-26T04:58:12.768Z,3.20
2022-07-26T05:00:22.789Z,3.00
2022-07-26T05:02:27.199Z,2.77
2022-07-26T05:04:30.797Z,2.40
2022-07-26T05:06:34.397Z,2.50
2022-07-26T05:08:37.945Z,2.83
2022-07-26T05:10:44.119Z,2.40
2022-07-26T05:12:49.142Z,2.30
2022-07-26T05:14:54.087Z,3.47
2022-07-26T05:16:57.855Z,3.30
2022-07-26T05:19:12.469Z,2.23
2022-07-26T05:21:16.000Z,2.90
2022-07-26T05:23:20.572Z,3.33
2022-07-26T05:25:24.338Z,3.40
2022-07-26T05:27:27.848Z,2.70
2022-07-26T05:29:31.319Z,2.83
2022-07-26T05:31:36.463Z,2.20
2022-07-26T05:33:40.158Z,3.20
2022-07-26T05:35:43.745Z,3.10
2022-07-26T05:37:47.376Z,2.67
2022-07-26T05:39:51.038Z,2.83
2022-07-26T05:41:54.599Z,3.17
2022-07-26T05:43:58.158Z,2.60
2022-07-26T05:46:04.442Z,3.13
2022-07-26T05:48:11.732Z,2.97
2022-07-26T05:50:15.492Z,2.80
2022-07-26T05:52:19.042Z,3.87
2022-07-26T05:54:22.854Z,3.13
2022-07-26T05:56:27.179Z,3.20
2022-07-26T05:58:30.703Z,3.10
2022-07-26T06:00:34.408Z,3.67
2022-07-26T06:02:38.247Z,3.20
2022-07-26T06:04:43.270Z,2.90
2022-07-26T06:06:46.820Z,2.70
2022-07-26T06:08:50.393Z,3.87
2022-07-26T06:10:55.266Z,2.93
2022-07-26T06:13:00.682Z,3.33
2022-07-26T06:15:04.156Z,2.97
2022-07-26T06:17:19.023Z,3.13
2022-07-26T06:19:22.579Z,2.87
2022-07-26T06:21:27.546Z,3.00
2022-07-26T06:23:33.939Z,3.33
2022-07-26T06:25:38.279Z,3.07
2022-07-26T06:27:41.781Z,3.53
2022-07-26T06:29:48.421Z,3.50
2022-07-26T06:31:52.405Z,3.87
2022-07-26T06:33:55.978Z,3.93
2022-07-26T06:35:59.642Z,2.80
2022-07-26T06:38:04.577Z,3.53
2022-07-26T06:40:09.033Z,3.50
2022-07-26T06:42:12.641Z,3.23
2022-07-26T06:44:16.109Z,2.70
2022-07-26T06:46:21.212Z,2.00
2022-07-26T06:48:25.074Z,2.20
2022-07-26T06:50:28.777Z,3.70
2022-07-26T06:52:33.262Z,3.73
2022-07-26T06:54:38.467Z,3.20
2022-07-26T06:56:42.003Z,2.90
2022-07-26T06:58:45.556Z,3.30
2022-07-26T07:00:49.118Z,3.20
2022-07-26T07:02:52.781Z,2.80
2022-07-26T07:04:56.366Z,2.80
2022-07-26T07:07:05.112Z,3.30
2022-07-26T07:09:09.758Z,3.00
2022-07-26T07:11:17.957Z,3.27
2022-07-26T07:13:23.586Z,2.80
2022-07-26T07:15:27.126Z,3.10
2022-07-26T07:17:31.064Z,3.03
2022-07-26T07:19:36.983Z,2.87
2022-07-26T07:21:40.614Z,2.33
2022-07-26T07:23:44.161Z,2.00
2022-07-26T07:25:47.664Z,2.47
2022-07-26T07:27:54.613Z,2.40
2022-07-26T07:29:58.635Z,2.53
2022-07-26T07:32:03.473Z,2.60
2022-07-26T07:34:07.418Z,2.67
2022-07-26T07:36:12.338Z,2.77
2022-07-26T07:38:15.946Z,2.80
2022-07-26T07:40:21.590Z,2.70
2022-07-26T07:42:25.315Z,3.53
2022-07-26T07:44:30.444Z,2.70
2022-07-26T07:46:34.946Z,2.53
2022-07-26T07:48:46.588Z,2.90
2022-07-26T07:50:51.497Z,2.40
2022-07-26T07:52:55.045Z,2.30
2022-07-26T07:55:28.630Z,2.83
2022-07-26T07:57:25.689Z,1.97
2022-07-26T07:59:39.339Z,2.80
2022-07-26T08:01:44.987Z,2.37
2022-07-26T08:03:50.583Z,2.77
2022-07-26T08:05:54.563Z,2.30
2022-07-26T08:07:58.238Z,2.73
2022-07-26T08:10:01.791Z,2.50
2022-07-26T08:12:05.531Z,2.00
2022-07-26T08:14:09.522Z,2.70
2022-07-26T08:16:15.998Z,2.20
2022-07-26T08:18:22.722Z,2.10
2022-07-26T08:20:27.045Z,2.47
2022-07-26T08:22:31.033Z,2.83
2022-07-26T08:24:34.577Z,3.13
2022-07-26T08:26:38.099Z,2.50
2022-07-26T08:28:58.534Z,2.40
2022-07-26T08:31:05.302Z,1.83
2022-07-26T08:33:10.640Z,2.10
2022-07-26T08:35:17.318Z,1.80
2022-07-26T08:37:23.147Z,2.63
2022-07-26T08:39:26.699Z,1.97
2022-07-26T08:41:30.251Z,2.10
2022-07-26T08:43:51.024Z,2.07
2022-07-26T08:46:02.067Z,2.10
2022-07-26T08:48:20.953Z,2.70
2022-07-26T08:50:26.719Z,2.10
2022-07-26T08:52:31.039Z,1.97
2022-07-26T08:54:34.910Z,2.00
2022-07-26T08:56:39.824Z,1.93
2022-07-26T08:58:43.913Z,1.83
2022-07-26T09:00:47.602Z,1.97
2022-07-26T09:02:51.322Z,1.80
2022-07-26T09:05:05.083Z,2.00
2022-07-26T09:07:11.104Z,1.83
2022-07-26T09:09:14.650Z,1.80
2022-07-26T09:11:31.126Z,1.97
2022-07-26T09:13:51.532Z,1.80
2022-07-26T09:16:09.952Z,2.17
2022-07-26T09:18:28.022Z,1.67
2022-07-26T09:20:34.177Z,2.20
2022-07-26T09:22:58.009Z,2.00
2022-07-26T09:25:01.768Z,2.90
2022-07-26T09:27:05.988Z,2.03
2022-07-26T09:29:10.987Z,2.30
2022-07-26T09:31:23.966Z,1.57
2022-07-26T09:33:28.040Z,1.97
2022-07-26T09:35:50.712Z,2.00
2022-07-26T09:37:56.727Z,1.70
2022-07-26T09:40:01.212Z,1.70
2022-07-26T09:42:27.545Z,1.87
2022-07-26T09:44:32.737Z,2.00
2022-07-26T09:46:53.489Z,1.87
2022-07-26T09:49:13.430Z,1.97
2022-07-26T09:51:16.961Z,1.90
2022-07-26T09:53:22.831Z,1.90
2022-07-26T09:55:28.890Z,2.20
2022-07-26T09:57:36.220Z,1.80
2022-07-26T09:59:39.668Z,1.60
2022-07-26T10:01:43.696Z,1.73
2022-07-26T10:03:47.264Z,1.80
2022-07-26T10:05:50.854Z,2.00
2022-07-26T10:07:55.830Z,2.00
2022-07-26T10:10:01.449Z,1.87
2022-07-26T10:12:08.908Z,2.13
2022-07-26T10:14:46.560Z,2.03
2022-07-26T10:16:50.249Z,1.97
2022-07-26T10:18:54.100Z,1.80
2022-07-26T10:20:57.600Z,1.60
2022-07-26T10:23:01.346Z,1.90
2022-07-26T10:25:20.014Z,1.50
2022-07-26T10:27:41.504Z,1.60
2022-07-26T10:29:46.472Z,1.80
2022-07-26T10:31:52.802Z,2.33
2022-07-26T10:33:56.627Z,1.80
2022-07-26T10:36:00.284Z,2.30
2022-07-26T10:38:04.734Z,1.80
2022-07-26T10:40:19.447Z,2.27
2022-07-26T10:42:23.186Z,2.00
2022-07-26T10:44:27.740Z,2.57
2022-07-26T10:46:33.305Z,2.20
2022-07-26T10:48:37.060Z,2.30
2022-07-26T10:50:40.812Z,1.90
2022-07-26T10:52:59.249Z,2.00
2022-07-26T10:55:11.772Z,1.83
2022-07-26T10:57:15.318Z,2.23
2022-07-26T10:59:54.929Z,2.33
2022-07-26T11:01:57.646Z,2.37
2022-07-26T11:04:01.289Z,2.33
2022-07-26T11:06:10.897Z,2.10
2022-07-26T11:08:14.392Z,2.20
2022-07-26T11:10:17.973Z,2.60
2022-07-26T11:12:23.187Z,2.13
2022-07-26T11:14:27.994Z,2.40
2022-07-26T11:16:38.003Z,2.40
2022-07-26T11:18:43.315Z,1.93
2022-07-26T11:20:47.826Z,2.63
2022-07-26T11:22:52.681Z,2.10
2022-07-26T11:24:57.322Z,2.10
2022-07-26T11:27:04.677Z,2.30
2022-07-26T11:29:08.287Z,2.50
2022-07-26T11:31:12.204Z,2.77
2022-07-26T11:33:18.285Z,2.30
2022-07-26T11:35:23.431Z,2.10
2022-07-26T11:37:33.560Z,1.60
2022-07-26T11:39:37.817Z,2.10
2022-07-26T11:41:42.262Z,2.27
2022-07-26T11:43:45.813Z,2.20
2022-07-26T11:45:53.885Z,2.77
2022-07-26T11:47:59.570Z,2.20
2022-07-26T11:50:14.256Z,2.10
2022-07-26T11:52:25.075Z,2.10
2022-07-26T11:54:30.303Z,1.90
2022-07-26T11:56:33.922Z,2.00
2022-07-26T11:58:37.473Z,2.10
2022-07-26T12:00:41.027Z,2.47
2022-07-26T12:02:44.730Z,1.90
2022-07-26T12:04:48.349Z,2.20
2022-07-26T12:06:52.144Z,2.30
2022-07-26T12:08:57.647Z,2.70
2022-07-26T12:11:01.216Z,2.07
2022-07-26T12:13:11.939Z,2.27
2022-07-26T12:15:15.728Z,2.10
2022-07-26T12:17:20.882Z,2.07
2022-07-26T12:19:25.987Z,2.07
2022-07-26T12:21:39.698Z,2.57
2022-07-26T12:23:44.452Z,2.07
2022-07-26T12:25:50.537Z,1.87
2022-07-26T12:27:54.551Z,2.37
2022-07-26T12:29:58.833Z,2.73
2022-07-26T12:32:03.127Z,2.33
2022-07-26T12:34:06.729Z,2.50
2022-07-26T12:36:28.404Z,2.23
2022-07-26T12:38:40.910Z,3.57
2022-07-26T12:40:44.885Z,2.20
2022-07-26T12:43:01.028Z,2.30
2022-07-26T12:45:06.541Z,2.40
2022-07-26T12:47:10.074Z,2.20
2022-07-26T12:49:14.080Z,2.33
2022-07-26T12:51:17.689Z,2.20
2022-07-26T12:53:21.197Z,2.00
2022-07-26T12:55:24.933Z,2.73
2022-07-26T12:57:28.469Z,2.00
2022-07-26T12:59:33.429Z,2.83
2022-07-26T13:01:37.308Z,1.77
2022-07-26T13:03:40.892Z,2.33
2022-07-26T13:05:44.444Z,2.20
2022-07-26T13:07:47.988Z,2.10
2022-07-26T13:10:13.954Z,2.43
2022-07-26T13:12:15.880Z,2.70
2022-07-26T13:14:19.449Z,1.80
2022-07-26T13:16:24.507Z,2.30
2022-07-26T13:18:28.170Z,2.53
2022-07-26T13:20:32.688Z,2.50
2022-07-26T13:22:36.308Z,2.30
2022-07-26T13:24:40.688Z,2.87
2022-07-26T13:26:44.751Z,2.00
2022-07-26T13:28:49.663Z,2.20
2022-07-26T13:30:53.470Z,1.77
2022-07-26T13:32:58.387Z,2.23
2022-07-26T13:35:01.975Z,2.47
2022-07-26T13:37:08.434Z,2.03
2022-07-26T13:39:12.186Z,2.30
2022-07-26T13:41:15.766Z,2.43
2022-07-26T13:43:19.259Z,2.40
2022-07-26T13:45:23.031Z,2.47
2022-07-26T13:47:27.672Z,2.27
2022-07-26T13:49:32.571Z,1.73
2022-07-26T13:51:55.019Z,2.77
2022-07-26T13:53:58.602Z,2.33
2022-07-26T13:56:02.113Z,2.20
2022-07-26T13:58:09.956Z,1.87
2022-07-26T14:00:14.632Z,2.10
2022-07-26T14:02:18.355Z,2.77
2022-07-26T14:04:22.159Z,2.37
2022-07-26T14:06:27.453Z,2.30
2022-07-26T14:08:31.306Z,2.20
2022-07-26T14:10:38.242Z,2.50
2022-07-26T14:12:41.817Z,2.33
2022-07-26T14:14:45.517Z,2.20
2022-07-26T14:16:49.618Z,2.27
2022-07-26T14:18:55.207Z,2.50
2022-07-26T14:20:58.733Z,2.37
2022-07-26T14:23:04.624Z,2.67
2022-07-26T14:25:08.816Z,2.60
2022-07-26T14:27:12.331Z,2.27
2022-07-26T14:29:16.783Z,2.93
2022-07-26T14:31:21.157Z,2.50
2022-07-26T14:33:24.991Z,3.40
2022-07-26T14:35:30.997Z,2.10
2022-07-26T14:37:43.859Z,2.60
2022-07-26T14:39:50.194Z,2.10
2022-07-26T14:41:53.763Z,1.80
2022-07-26T14:43:57.279Z,2.40
2022-07-26T14:46:00.845Z,2.90
2022-07-26T14:48:04.402Z,2.67
2022-07-26T14:50:11.124Z,2.30
2022-07-26T14:52:15.819Z,2.40
2022-07-26T14:54:20.424Z,2.80
2022-07-26T14:56:25.793Z,2.63
2022-07-26T14:58:29.773Z,2.90
2022-07-26T15:00:34.835Z,2.90
2022-07-26T15:02:39.982Z,2.27
2022-07-26T15:04:43.582Z,2.27
2022-07-26T15:06:49.413Z,2.33
2022-07-26T15:08:53.891Z,2.57
2022-07-26T15:11:00.495Z,2.67
2022-07-26T15:13:09.163Z,2.83
2022-07-26T15:15:12.890Z,3.53
2022-07-26T15:17:16.457Z,2.80
2022-07-26T15:19:25.354Z,2.77
2022-07-26T15:21:29.576Z,3.03
2022-07-26T15:23:33.093Z,2.60
2022-07-26T15:25:36.750Z,2.93
2022-07-26T15:27:40.529Z,3.07
2022-07-26T15:29:48.638Z,2.70
2022-07-26T15:31:52.304Z,2.83
2022-07-26T15:33:55.858Z,3.57
2022-07-26T15:36:03.974Z,3.20
2022-07-26T15:38:09.318Z,2.70
2022-07-26T15:40:13.683Z,2.77
2022-07-26T15:42:17.596Z,3.37
2022-07-26T15:44:22.933Z,3.27
2022-07-26T15:46:30.613Z,2.83
2022-07-26T15:48:36.819Z,3.27
2022-07-26T15:50:41.220Z,2.57
2022-07-26T15:52:46.091Z,3.10
2022-07-26T15:54:49.643Z,3.17
2022-07-26T15:56:56.760Z,3.03
2022-07-26T15:59:00.398Z,3.37
2022-07-26T16:01:04.441Z,3.30
2022-07-26T16:03:09.778Z,3.30
2022-07-26T16:05:13.383Z,3.00
2022-07-26T16:07:18.178Z,3.30
2022-07-26T16:09:25.423Z,2.83
2022-07-26T16:11:31.155Z,2.77
2022-07-26T16:13:35.820Z,2.80
2022-07-26T16:15:39.409Z,3.07
2022-07-26T16:17:42.950Z,2.57
2022-07-26T16:19:47.845Z,2.70
2022-07-26T16:21:54.206Z,3.00
2022-07-26T16:23:59.868Z,3.17
2022-07-26T16:26:08.613Z,2.53
2022-07-26T16:28:12.187Z,2.40
2022-07-26T16:30:17.001Z,3.10
2022-07-26T16:32:21.646Z,3.40
2022-07-26T16:34:25.216Z,2.90
2022-07-26T16:36:30.536Z,3.00
2022-07-26T16:38:34.068Z,3.20
2022-07-26T16:40:38.041Z,3.20
2022-07-26T16:42:41.644Z,3.00
2022-07-26T16:44:45.172Z,3.07
2022-07-26T16:46:48.729Z,3.67
2022-07-26T16:48:52.412Z,3.60
2022-07-26T16:50:55.971Z,3.40
2022-07-26T16:53:01.869Z,3.50
2022-07-26T16:55:07.671Z,2.77
2022-07-26T16:57:11.431Z,3.60
2022-07-26T16:59:15.312Z,3.30
2022-07-26T17:01:19.427Z,4.23
2022-07-26T17:03:23.691Z,3.57
2022-07-26T17:05:27.269Z,3.13
2022-07-26T17:07:31.995Z,3.33
2022-07-26T17:09:37.292Z,3.33
2022-07-26T17:11:40.889Z,3.17
2022-07-26T17:13:44.392Z,3.67
2022-07-26T17:15:48.330Z,3.40
2022-07-26T17:17:51.952Z,3.10
2022-07-26T17:19:55.865Z,3.40
2022-07-26T17:21:59.607Z,3.17
2022-07-26T17:24:05.696Z,3.67
2022-07-26T17:26:11.071Z,2.57
2022-07-26T17:28:14.766Z,3.30
2022-07-26T17:30:18.278Z,3.40
2022-07-26T17:32:21.826Z,2.73
2022-07-26T17:34:25.520Z,3.17
2022-07-26T17:36:30.269Z,3.40
2022-07-26T17:38:33.844Z,3.20
2022-07-26T17:40:38.463Z,3.57
2022-07-26T17:42:43.478Z,3.60
2022-07-26T17:44:47.075Z,3.60
2022-07-26T17:46:51.485Z,4.00
2022-07-26T17:48:55.130Z,3.33
2022-07-26T17:50:58.790Z,4.10
2022-07-26T17:53:02.319Z,3.57
2022-07-26T17:55:06.045Z,3.10
2022-07-26T17:57:09.976Z,3.50
2022-07-26T17:59:14.948Z,4.27
2022-07-26T18:01:18.847Z,3.80
2022-07-26T18:03:23.226Z,3.43
2022-07-26T18:05:33.357Z,3.87
2022-07-26T18:07:39.999Z,4.43
2022-07-26T18:09:43.633Z,3.57
2022-07-26T18:11:47.084Z,3.13
2022-07-26T18:13:50.627Z,3.17
2022-07-26T18:15:55.728Z,4.00
2022-07-26T18:17:59.322Z,3.43
2022-07-26T18:20:02.905Z,4.33
2022-07-26T18:22:06.551Z,4.00
2022-07-26T18:24:17.048Z,3.93
2022-07-26T18:26:21.203Z,4.07
2022-07-26T18:28:24.685Z,3.90
2022-07-26T18:30:29.937Z,4.10
2022-07-26T18:32:35.274Z,4.20
2022-07-26T18:34:38.997Z,4.00
2022-07-26T18:36:42.619Z,4.50
2022-07-26T18:38:46.222Z,4.20
2022-07-26T18:40:49.830Z,3.50
2022-07-26T18:42:53.544Z,3.77
2022-07-26T18:44:57.040Z,3.80
2022-07-26T18:47:00.684Z,4.10
2022-07-26T18:49:05.773Z,3.93
2022-07-26T18:51:10.704Z,4.37
2022-07-26T18:53:14.343Z,3.93
2022-07-26T18:55:17.893Z,4.07
2022-07-26T18:57:21.493Z,3.97
2022-07-26T18:59:25.043Z,4.00
2022-07-26T19:01:28.962Z,3.80
2022-07-26T19:03:34.787Z,4.30
2022-07-26T19:05:40.190Z,4.33
2022-07-26T19:07:43.830Z,3.90
2022-07-26T19:09:47.403Z,4.30
2022-07-26T19:11:51.464Z,4.50
2022-07-26T19:13:55.342Z,4.23
2022-07-26T19:15:59.277Z,4.60
2022-07-26T19:18:10.437Z,4.43
2022-07-26T19:20:13.986Z,4.37
2022-07-26T19:22:19.267Z,4.90
2022-07-26T19:24:24.186Z,5.00
2022-07-26T19:26:27.745Z,5.07
2022-07-26T19:28:31.506Z,4.67
2022-07-26T19:30:35.082Z,5.50
2022-07-26T19:32:39.273Z,4.47
2022-07-26T19:34:42.850Z,5.40
2022-07-26T19:36:46.469Z,5.60
2022-07-26T19:38:51.535Z,4.27
2022-07-26T19:40:55.308Z,4.83
2022-07-26T19:42:58.771Z,5.80
2022-07-26T19:45:02.386Z,5.20
2022-07-26T19:47:05.927Z,4.83
2022-07-26T19:49:11.004Z,5.40
2022-07-26T19:51:14.852Z,5.00
2022-07-26T19:53:18.788Z,5.50
2022-07-26T19:55:24.680Z,5.83
2022-07-26T19:57:28.251Z,4.60
2022-07-26T19:59:31.808Z,5.80
2022-07-26T20:01:35.571Z,6.10
2022-07-26T20:03:39.351Z,5.43
2022-07-26T20:05:42.953Z,5.43
2022-07-26T20:07:47.891Z,5.73
2022-07-26T20:09:52.002Z,5.43
2022-07-26T20:11:56.903Z,6.00
2022-07-26T20:14:00.691Z,4.60
2022-07-26T20:16:04.382Z,5.57
2022-07-26T20:18:07.929Z,4.90
2022-07-26T20:20:12.236Z,4.87
2022-07-26T20:22:15.732Z,5.77
2022-07-26T20:24:19.228Z,6.00
2022-07-26T20:26:23.122Z,5.77
2022-07-26T20:28:28.029Z,5.50
2022-07-26T20:30:31.963Z,5.70
2022-07-26T20:32:35.555Z,5.73
2022-07-26T20:34:39.040Z,6.23
2022-07-26T20:36:42.517Z,6.17
2022-07-26T20:38:51.366Z,5.30
2022-07-26T20:40:55.569Z,7.20
2022-07-26T20:43:00.258Z,6.33
2022-07-26T20:45:06.104Z,6.13
2022-07-26T20:47:15.006Z,5.47
2022-07-26T20:49:18.564Z,6.00
2022-07-26T20:51:22.558Z,6.70
2022-07-26T20:53:26.296Z,6.23
2022-07-26T20:55:29.833Z,5.40
2022-07-26T20:57:33.533Z,6.10
2022-07-26T20:59:38.176Z,5.20
2022-07-26T21:01:43.987Z,5.50
2022-07-26T21:03:47.749Z,5.30
2022-07-26T21:05:51.661Z,7.33
2022-07-26T21:07:59.250Z,6.20
2022-07-26T21:10:03.705Z,6.30
2022-07-26T21:12:07.459Z,6.00
2022-07-26T21:14:10.991Z,5.87
2022-07-26T21:16:14.902Z,6.00
2022-07-26T21:18:19.886Z,6.53
2022-07-26T21:20:23.781Z,6.20
2022-07-26T21:22:27.306Z,6.90
2022-07-26T21:24:30.906Z,6.20
2022-07-26T21:26:34.691Z,6.60
2022-07-26T21:28:38.244Z,6.00
2022-07-26T21:30:41.935Z,5.33
2022-07-26T21:32:45.651Z,5.60
2022-07-26T21:34:50.599Z,6.33
2022-07-26T21:36:54.788Z,5.60
2022-07-26T21:38:58.280Z,5.43
2022-07-26T21:41:01.810Z,6.93
2022-07-26T21:43:05.546Z,6.33
2022-07-26T21:45:09.406Z,6.90
2022-07-26T21:47:13.119Z,7.20
2022-07-26T21:49:18.361Z,7.00
2022-07-26T21:51:23.296Z,5.90
2022-07-26T21:53:26.825Z,7.00
2022-07-26T21:55:30.358Z,7.33
2022-07-26T21:57:34.144Z,6.10
2022-07-26T21:59:37.660Z,6.07
2022-07-26T22:01:41.277Z,7.50
2022-07-26T22:03:45.322Z,6.03
2022-07-26T22:05:48.859Z,7.13
2022-07-26T22:07:54.112Z,6.20
2022-07-26T22:09:57.615Z,7.00
2022-07-26T22:12:01.179Z,6.47
2022-07-26T22:14:04.792Z,7.00
2022-07-26T22:16:08.603Z,7.40
2022-07-26T22:18:12.359Z,8.47
2022-07-26T22:20:15.888Z,7.37
2022-07-26T22:22:19.405Z,7.47
2022-07-26T22:24:24.319Z,6.43
2022-07-26T22:26:31.204Z,6.43
2022-07-26T22:28:35.396Z,5.93
2022-07-26T22:30:39.201Z,6.90
2022-07-26T22:32:42.730Z,6.80
2022-07-26T22:34:46.234Z,7.13
2022-07-26T22:36:49.779Z,6.80
2022-07-26T22:38:53.265Z,6.33
2022-07-26T22:40:59.870Z,6.07
2022-07-26T22:43:03.617Z,5.97
2022-07-26T22:45:09.932Z,7.10
2022-07-26T22:47:13.898Z,7.50
2022-07-26T22:49:17.487Z,5.73
2022-07-26T22:51:21.040Z,6.03
2022-07-26T22:53:24.917Z,6.60
2022-07-26T22:55:28.570Z,6.83
2022-07-26T22:57:33.649Z,6.47
2022-07-26T22:59:37.221Z,6.20
2022-07-26T23:01:40.782Z,6.43
2022-07-26T23:03:49.646Z,7.00
2022-07-26T23:05:54.085Z,7.00
2022-07-26T23:08:01.768Z,6.23
2022-07-26T23:10:08.525Z,6.17
2022-07-26T23:12:12.135Z,6.63
2022-07-26T23:14:17.276Z,5.30
2022-07-26T23:16:20.808Z,6.93
2022-07-26T23:18:26.328Z,6.70
2022-07-26T23:20:29.879Z,7.53
2022-07-26T23:22:33.393Z,6.60
2022-07-26T23:24:37.235Z,7.70
2022-07-26T23:26:42.948Z,6.57
2022-07-26T23:28:46.447Z,6.13
2022-07-26T23:30:51.343Z,6.17
2022-07-26T23:32:55.374Z,6.57
2022-07-26T23:34:58.886Z,5.83
2022-07-26T23:37:03.459Z,6.73
2022-07-26T23:39:07.487Z,5.90
2022-07-26T23:41:11.009Z,5.50
2022-07-26T23:43:14.533Z,6.50
2022-07-26T23:45:18.075Z,6.50
2022-07-26T23:47:25.367Z,5.63
2022-07-26T23:49:28.978Z,7.17
2022-07-26T23:51:32.727Z,4.83
2022-07-26T23:53:36.282Z,6.60
2022-07-26T23:55:39.760Z,6.43
2022-07-26T23:57:43.262Z,6.60
2022-07-26T23:59:46.866Z,6.97
